createdAt,value
2022-12-24T00:01:06.187Z,99.10
2022-12-24T00:03:37.185Z,99.30
2022-12-24T00:06:06.344Z,99.10
2022-12-24T00:08:34.577Z,99.20
2022-12-24T00:11:01.950Z,98.80
2022-12-24T00:13:29.411Z,98.70
2022-12-24T00:15:56.705Z,99.10
2022-12-24T00:18:24.862Z,99.30
2022-12-24T00:20:52.725Z,99.40
2022-12-24T00:23:20.440Z,99.00
2022-12-24T00:25:48.044Z,99.20
2022-12-24T00:28:15.941Z,99.40
2022-12-24T00:30:43.814Z,99.40
2022-12-24T00:33:12.677Z,99.50
2022-12-24T00:35:40.866Z,99.60
2022-12-24T00:38:08.918Z,99.50
2022-12-24T00:40:36.250Z,99.30
2022-12-24T00:43:03.880Z,99.30
2022-12-24T00:45:31.096Z,99.30
2022-12-24T00:47:58.374Z,99.20
2022-12-24T00:50:25.580Z,98.60
2022-12-24T00:52:53.824Z,99.00
2022-12-24T00:55:20.990Z,99.10
2022-12-24T00:57:48.219Z,99.10
2022-12-24T01:00:17.979Z,99.10
2022-12-24T01:02:45.552Z,99.10
2022-12-24T01:05:13.340Z,99.10
2022-12-24T01:07:44.188Z,99.10
2022-12-24T01:10:14.177Z,99.20
2022-12-24T01:12:42.995Z,99.20
2022-12-24T01:15:11.300Z,99.20
2022-12-24T01:17:39.242Z,99.10
2022-12-24T01:20:17.603Z,99.10
2022-12-24T01:22:45.221Z,99.10
2022-12-24T01:25:12.852Z,98.90
2022-12-24T01:27:40.177Z,98.70
2022-12-24T01:30:09.177Z,98.70
2022-12-24T01:32:36.416Z,98.60
2022-12-24T01:35:05.786Z,98.80
2022-12-24T01:37:33.067Z,98.80
2022-12-24T01:40:18.844Z,98.90
2022-12-24T01:43:07.444Z,99.00
2022-12-24T01:45:47.996Z,99.00
2022-12-24T01:48:42.710Z,99.10
2022-12-24T01:51:39.565Z,98.80
2022-12-24T01:54:24.531Z,98.80
2022-12-24T01:56:59.173Z,98.80
2022-12-24T01:59:26.814Z,98.80
2022-12-24T02:01:54.532Z,98.70
2022-12-24T02:04:39.816Z,99.00
2022-12-24T02:07:07.340Z,99.10
2022-12-24T02:09:36.597Z,99.10
2022-12-24T02:12:06.046Z,99.00
2022-12-24T02:14:34.754Z,98.80
2022-12-24T02:17:18.011Z,99.00
2022-12-24T02:20:09.603Z,98.80
2022-12-24T02:22:40.076Z,98.80
2022-12-24T02:25:25.638Z,98.90
2022-12-24T02:28:16.828Z,98.80
2022-12-24T02:30:51.414Z,98.90
2022-12-24T02:33:29.996Z,99.00
2022-12-24T02:36:30.151Z,99.10
2022-12-24T02:39:10.188Z,99.10
2022-12-24T02:42:01.755Z,99.10
2022-12-24T02:44:31.930Z,99.10
2022-12-24T02:47:01.076Z,98.80
2022-12-24T02:49:28.252Z,98.90
2022-12-24T02:51:55.480Z,99.10
2022-12-24T02:54:23.017Z,99.20
2022-12-24T02:57:23.038Z,99.20
2022-12-24T03:00:02.355Z,99.00
2022-12-24T03:02:35.775Z,98.90
2022-12-24T03:05:34.145Z,99.10
2022-12-24T03:08:21.348Z,99.10
2022-12-24T03:11:02.969Z,99.10
2022-12-24T03:13:30.219Z,98.90
2022-12-24T03:15:57.500Z,98.90
2022-12-24T03:18:26.889Z,99.00
2022-12-24T03:21:06.684Z,99.10
2022-12-24T03:23:34.980Z,99.20
2022-12-24T03:26:07.639Z,99.10
2022-12-24T03:28:37.317Z,98.90
2022-12-24T03:31:09.377Z,98.80
2022-12-24T03:33:36.844Z,98.80
2022-12-24T03:36:05.203Z,99.00
2022-12-24T03:38:32.678Z,99.40
2022-12-24T03:41:00.224Z,99.40
2022-12-24T03:43:28.929Z,99.30
2022-12-24T03:45:56.325Z,99.10
2022-12-24T03:48:30.780Z,99.00
2022-12-24T03:50:59.974Z,99.10
2022-12-24T03:53:27.261Z,99.20
2022-12-24T03:55:54.649Z,99.20
2022-12-24T03:58:22.023Z,99.20
2022-12-24T04:00:49.916Z,99.30
2022-12-24T04:03:17.249Z,99.30
2022-12-24T04:05:44.713Z,99.30
2022-12-24T04:08:11.868Z,99.30
2022-12-24T04:10:39.153Z,99.40
2022-12-24T04:13:06.319Z,99.40
2022-12-24T04:15:33.461Z,99.40
2022-12-24T04:18:00.567Z,99.50
2022-12-24T04:20:27.698Z,99.60
2022-12-24T04:22:54.958Z,99.80
2022-12-24T04:25:22.808Z,99.90
2022-12-24T04:27:50.126Z,99.90
2022-12-24T04:30:17.343Z,99.90
2022-12-24T04:32:45.099Z,99.90
2022-12-24T04:35:16.541Z,99.90
2022-12-24T04:37:44.920Z,99.90
2022-12-24T04:40:12.289Z,99.90
2022-12-24T04:42:39.418Z,99.90
2022-12-24T04:45:08.052Z,99.90
2022-12-24T04:47:35.244Z,99.90
2022-12-24T04:50:02.558Z,99.90
2022-12-24T04:52:29.805Z,99.90
2022-12-24T04:54:56.939Z,99.90
2022-12-24T04:57:24.191Z,99.90
2022-12-24T04:59:51.635Z,99.90
2022-12-24T05:02:19.121Z,99.90
2022-12-24T05:04:46.569Z,99.90
2022-12-24T05:07:13.857Z,99.90
2022-12-24T05:09:42.473Z,99.90
2022-12-24T05:12:09.637Z,99.90
2022-12-24T05:14:37.089Z,99.90
2022-12-24T05:17:04.367Z,99.90
2022-12-24T05:19:31.723Z,99.90
2022-12-24T05:22:17.508Z,99.90
2022-12-24T05:25:03.484Z,99.90
2022-12-24T05:27:33.993Z,99.90
2022-12-24T05:30:01.442Z,99.90
2022-12-24T05:32:29.111Z,99.90
2022-12-24T05:34:56.312Z,99.90
2022-12-24T05:37:23.592Z,99.90
2022-12-24T05:39:50.821Z,99.90
2022-12-24T05:42:18.163Z,99.90
2022-12-24T05:44:45.721Z,99.90
2022-12-24T05:47:12.916Z,99.90
2022-12-24T05:49:40.088Z,99.90
2022-12-24T05:52:07.291Z,99.90
2022-12-24T05:54:34.878Z,99.90
2022-12-24T05:57:02.075Z,99.90
2022-12-24T05:59:29.331Z,99.90
2022-12-24T06:01:56.542Z,99.90
2022-12-24T06:04:28.636Z,99.90
2022-12-24T06:06:56.531Z,99.90
2022-12-24T06:09:23.754Z,99.90
2022-12-24T06:11:50.987Z,99.90
2022-12-24T06:14:19.479Z,99.90
2022-12-24T06:16:46.674Z,99.90
2022-12-24T06:19:13.877Z,99.90
2022-12-24T06:21:41.137Z,99.90
2022-12-24T06:24:08.513Z,99.90
2022-12-24T06:26:35.644Z,99.90
2022-12-24T06:29:02.758Z,99.90
2022-12-24T06:31:30.121Z,99.90
2022-12-24T06:33:57.544Z,99.90
2022-12-24T06:36:25.783Z,99.90
2022-12-24T06:38:54.589Z,99.90
2022-12-24T06:41:22.697Z,99.90
2022-12-24T06:43:52.663Z,99.90
2022-12-24T06:46:22.003Z,99.90
2022-12-24T06:48:50.795Z,99.90
2022-12-24T06:51:20.069Z,99.90
2022-12-24T06:53:50.650Z,99.90
2022-12-24T06:56:19.137Z,99.90
2022-12-24T06:58:46.617Z,99.90
2022-12-24T07:01:16.581Z,99.90
2022-12-24T07:03:45.259Z,99.90
2022-12-24T07:06:21.292Z,99.90
2022-12-24T07:08:48.454Z,99.90
2022-12-24T07:11:17.422Z,99.90
2022-12-24T07:13:44.856Z,99.90
2022-12-24T07:16:12.153Z,99.90
2022-12-24T07:18:39.485Z,99.90
2022-12-24T07:21:07.611Z,99.90
2022-12-24T07:23:35.247Z,99.90
2022-12-24T07:26:06.925Z,99.90
2022-12-24T07:28:34.124Z,99.90
2022-12-24T07:31:01.852Z,99.90
2022-12-24T07:33:29.178Z,99.90
2022-12-24T07:36:00.464Z,99.90
2022-12-24T07:38:28.254Z,99.90
2022-12-24T07:40:56.795Z,99.90
2022-12-24T07:43:24.584Z,99.90
2022-12-24T07:45:55.649Z,99.90
2022-12-24T07:48:24.124Z,99.90
2022-12-24T07:50:52.424Z,99.90
2022-12-24T07:53:19.892Z,99.90
2022-12-24T07:55:47.045Z,99.90
2022-12-24T07:58:14.274Z,99.90
2022-12-24T08:00:41.523Z,99.90
2022-12-24T08:03:16.611Z,99.90
2022-12-24T08:05:44.488Z,99.90
2022-12-24T08:08:11.915Z,99.90
2022-12-24T08:10:46.175Z,99.90
2022-12-24T08:13:13.991Z,99.90
2022-12-24T08:15:41.327Z,99.90
2022-12-24T08:18:08.591Z,99.90
2022-12-24T08:20:38.652Z,99.90
2022-12-24T08:23:06.991Z,99.90
2022-12-24T08:25:34.861Z,99.90
2022-12-24T08:28:02.344Z,99.90
2022-12-24T08:30:30.013Z,99.90
2022-12-24T08:32:57.414Z,99.90
2022-12-24T08:35:24.832Z,99.90
2022-12-24T08:37:52.107Z,99.90
2022-12-24T08:40:19.565Z,99.90
2022-12-24T08:42:46.951Z,99.90
2022-12-24T08:45:14.576Z,99.90
2022-12-24T08:47:49.024Z,99.90
2022-12-24T08:50:17.915Z,99.90
2022-12-24T08:52:45.067Z,99.90
2022-12-24T08:55:12.246Z,99.90
2022-12-24T08:57:39.409Z,99.90
2022-12-24T09:00:07.741Z,99.90
2022-12-24T09:02:35.789Z,99.90
2022-12-24T09:05:04.246Z,99.90
2022-12-24T09:07:31.512Z,99.90
2022-12-24T09:10:07.191Z,99.50
2022-12-24T09:12:38.349Z,98.90
2022-12-24T09:15:08.292Z,97.40
2022-12-24T09:17:36.883Z,98.30
2022-12-24T09:20:07.109Z,96.40
2022-12-24T09:22:40.133Z,97.40
2022-12-24T09:25:08.898Z,96.90
2022-12-24T09:27:36.851Z,95.80
2022-12-24T09:30:07.225Z,95.20
2022-12-24T09:32:36.259Z,95.70
2022-12-24T09:35:03.813Z,95.80
2022-12-24T09:37:31.132Z,95.30
2022-12-24T09:39:58.438Z,93.80
2022-12-24T09:42:29.082Z,93.70
2022-12-24T09:45:15.873Z,93.60
2022-12-24T09:47:49.809Z,94.90
2022-12-24T09:50:29.713Z,94.90
2022-12-24T09:52:58.783Z,93.20
2022-12-24T09:55:48.345Z,92.30
2022-12-24T09:58:26.585Z,92.80
2022-12-24T10:00:57.375Z,92.70
2022-12-24T10:03:25.509Z,89.20
2022-12-24T10:06:23.514Z,90.90
2022-12-24T10:09:17.966Z,88.70
2022-12-24T10:11:57.236Z,85.70
2022-12-24T10:14:54.126Z,87.90
2022-12-24T10:17:41.714Z,88.70
2022-12-24T10:20:22.929Z,88.80
2022-12-24T10:23:15.365Z,88.10
2022-12-24T10:25:52.797Z,84.60
2022-12-24T10:28:32.105Z,83.90
2022-12-24T10:31:03.458Z,82.70
2022-12-24T10:33:43.622Z,83.40
2022-12-24T10:36:18.610Z,79.90
2022-12-24T10:38:46.245Z,76.90
2022-12-24T10:41:15.199Z,77.20
2022-12-24T10:43:45.063Z,79.20
2022-12-24T10:46:21.982Z,77.30
2022-12-24T10:48:55.115Z,76.70
2022-12-24T10:51:45.412Z,77.40
2022-12-24T10:54:20.896Z,76.90
2022-12-24T10:57:01.669Z,76.70
2022-12-24T10:59:50.491Z,76.40
2022-12-24T11:02:38.101Z,76.60
2022-12-24T11:05:27.157Z,76.70
2022-12-24T11:08:06.518Z,77.40
2022-12-24T11:10:37.041Z,77.30
2022-12-24T11:13:36.447Z,76.70
2022-12-24T11:16:11.027Z,77.20
2022-12-24T11:18:50.792Z,77.60
2022-12-24T11:21:32.803Z,77.20
2022-12-24T11:24:08.032Z,76.70
2022-12-24T11:26:35.652Z,76.40
2022-12-24T11:29:28.027Z,76.70
2022-12-24T11:32:23.167Z,76.60
2022-12-24T11:34:52.241Z,76.60
2022-12-24T11:37:23.633Z,73.70
2022-12-24T11:39:54.324Z,75.60
2022-12-24T11:42:27.726Z,74.20
2022-12-24T11:44:58.074Z,75.60
2022-12-24T11:47:39.194Z,72.90
2022-12-24T11:50:39.095Z,72.30
2022-12-24T11:53:24.233Z,72.30
2022-12-24T11:55:56.757Z,71.90
2022-12-24T11:58:28.875Z,71.60
2022-12-24T12:01:19.118Z,71.20
2022-12-24T12:03:50.584Z,71.50
2022-12-24T12:06:31.537Z,71.90
2022-12-24T12:09:07.149Z,72.50
2022-12-24T12:11:35.865Z,70.80
2022-12-24T12:14:04.141Z,71.20
2022-12-24T12:17:03.461Z,71.40
2022-12-24T12:19:53.320Z,72.50
2022-12-24T12:22:43.755Z,71.60
2022-12-24T12:25:28.282Z,71.80
2022-12-24T12:27:59.623Z,71.20
2022-12-24T12:30:27.691Z,71.40
2022-12-24T12:33:28.456Z,71.50
2022-12-24T12:35:58.449Z,70.80
2022-12-24T12:38:31.708Z,70.30
2022-12-24T12:41:11.907Z,71.80
2022-12-24T12:44:01.057Z,71.90
2022-12-24T12:46:47.424Z,71.90
2022-12-24T12:49:51.344Z,71.20
2022-12-24T12:52:36.417Z,71.20
2022-12-24T12:55:37.642Z,71.10
2022-12-24T12:58:37.432Z,71.20
2022-12-24T13:01:16.541Z,70.00
2022-12-24T13:04:08.214Z,70.10
2022-12-24T13:07:05.865Z,70.40
2022-12-24T13:09:57.898Z,69.80
2022-12-24T13:12:31.065Z,70.20
2022-12-24T13:15:31.781Z,70.20
2022-12-24T13:18:22.177Z,70.90
2022-12-24T13:20:51.188Z,71.20
2022-12-24T13:23:21.853Z,71.20
2022-12-24T13:25:56.293Z,71.50
2022-12-24T13:28:23.463Z,71.60
2022-12-24T13:31:28.932Z,72.00
2022-12-24T13:33:59.223Z,72.20
2022-12-24T13:37:07.922Z,72.50
2022-12-24T13:40:24.622Z,73.00
2022-12-24T13:42:51.855Z,73.20
2022-12-24T13:45:34.404Z,73.30
2022-12-24T13:48:28.713Z,73.10
2022-12-24T13:51:21.447Z,73.30
2022-12-24T13:53:49.642Z,72.80
2022-12-24T13:56:16.830Z,73.00
2022-12-24T13:58:48.314Z,73.00
2022-12-24T14:01:20.384Z,73.40
2022-12-24T14:03:53.913Z,72.50
2022-12-24T14:06:23.552Z,72.80
2022-12-24T14:08:54.846Z,72.80
2022-12-24T14:11:25.013Z,72.40
2022-12-24T14:14:27.951Z,72.60
2022-12-24T14:16:59.284Z,73.20
2022-12-24T14:19:37.432Z,73.20
2022-12-24T14:22:27.360Z,73.00
2022-12-24T14:25:17.782Z,73.00
2022-12-24T14:27:52.868Z,73.00
2022-12-24T14:30:21.356Z,73.60
2022-12-24T14:32:50.218Z,73.60
2022-12-24T14:35:19.384Z,73.70
2022-12-24T14:37:50.535Z,74.00
2022-12-24T14:40:21.669Z,74.10
2022-12-24T14:43:11.936Z,75.00
2022-12-24T14:46:07.285Z,76.40
2022-12-24T14:49:13.460Z,76.40
2022-12-24T14:51:55.907Z,76.10
2022-12-24T14:54:34.974Z,76.30
2022-12-24T14:57:14.850Z,76.70
2022-12-24T14:59:43.996Z,77.20
2022-12-24T15:02:52.496Z,77.20
2022-12-24T15:05:44.347Z,77.50
2022-12-24T15:08:17.791Z,78.20
2022-12-24T15:10:51.967Z,78.10
2022-12-24T15:13:22.092Z,77.80
2022-12-24T15:16:15.991Z,77.90
2022-12-24T15:18:48.552Z,77.80
2022-12-24T15:21:28.445Z,78.60
2022-12-24T15:23:56.097Z,78.60
2022-12-24T15:26:36.796Z,78.40
2022-12-24T15:29:20.922Z,80.00
2022-12-24T15:31:56.175Z,79.20
2022-12-24T15:34:43.967Z,79.70
2022-12-24T15:37:11.243Z,80.70
2022-12-24T15:39:40.139Z,79.80
2022-12-24T15:42:18.755Z,79.80
2022-12-24T15:45:08.635Z,80.40
2022-12-24T15:47:43.004Z,80.30
2022-12-24T15:50:17.083Z,80.90
2022-12-24T15:52:46.156Z,81.20
2022-12-24T15:55:38.161Z,80.60
2022-12-24T15:58:28.344Z,80.70
2022-12-24T16:01:21.039Z,80.80
2022-12-24T16:03:56.120Z,80.70
2022-12-24T16:06:25.750Z,80.50
2022-12-24T16:09:00.435Z,80.60
2022-12-24T16:11:37.098Z,80.60
2022-12-24T16:14:32.689Z,80.60
2022-12-24T16:17:00.185Z,80.70
2022-12-24T16:19:40.337Z,80.80
2022-12-24T16:22:31.561Z,80.80
2022-12-24T16:25:25.818Z,80.90
2022-12-24T16:27:54.909Z,80.90
2022-12-24T16:30:27.145Z,80.80
2022-12-24T16:32:54.646Z,80.90
2022-12-24T16:35:37.409Z,80.90
2022-12-24T16:38:05.041Z,80.60
2022-12-24T16:40:32.415Z,80.90
2022-12-24T16:43:18.316Z,80.60
2022-12-24T16:45:49.239Z,80.60
2022-12-24T16:48:25.804Z,80.10
2022-12-24T16:50:53.969Z,80.40
2022-12-24T16:53:23.329Z,80.60
2022-12-24T16:56:00.035Z,80.40
2022-12-24T16:58:27.447Z,79.90
2022-12-24T17:00:55.341Z,80.00
2022-12-24T17:03:22.863Z,80.10
2022-12-24T17:05:50.402Z,79.80
2022-12-24T17:08:27.277Z,79.90
2022-12-24T17:10:54.561Z,79.80
2022-12-24T17:13:21.804Z,79.80
2022-12-24T17:15:49.144Z,78.90
2022-12-24T17:18:17.702Z,79.60
2022-12-24T17:20:57.786Z,79.20
2022-12-24T17:23:25.316Z,79.40
2022-12-24T17:25:52.694Z,79.60
2022-12-24T17:28:20.039Z,79.50
2022-12-24T17:30:47.390Z,79.60
2022-12-24T17:33:15.264Z,79.50
2022-12-24T17:35:43.187Z,79.50
2022-12-24T17:38:10.434Z,79.70
2022-12-24T17:40:37.602Z,79.80
2022-12-24T17:43:05.159Z,80.00
2022-12-24T17:45:32.359Z,80.10
2022-12-24T17:47:59.671Z,80.10
2022-12-24T17:50:26.959Z,80.20
2022-12-24T17:52:54.334Z,80.30
2022-12-24T17:55:23.793Z,80.20
2022-12-24T17:57:51.020Z,80.30
2022-12-24T18:00:18.566Z,80.40
2022-12-24T18:02:45.926Z,80.40
2022-12-24T18:05:13.738Z,80.50
2022-12-24T18:07:40.894Z,81.20
2022-12-24T18:10:08.769Z,81.40
2022-12-24T18:12:37.417Z,81.30
2022-12-24T18:15:06.518Z,81.30
2022-12-24T18:17:33.869Z,81.30
2022-12-24T18:20:02.156Z,82.10
2022-12-24T18:22:30.002Z,81.60
2022-12-24T18:24:57.210Z,82.00
2022-12-24T18:27:24.568Z,81.80
2022-12-24T18:29:51.944Z,82.00
2022-12-24T18:32:19.357Z,81.90
2022-12-24T18:34:46.949Z,81.90
2022-12-24T18:37:14.251Z,82.00
2022-12-24T18:39:41.639Z,82.70
2022-12-24T18:42:16.838Z,82.60
2022-12-24T18:44:47.491Z,82.40
2022-12-24T18:47:16.338Z,82.50
2022-12-24T18:49:43.712Z,82.50
2022-12-24T18:52:11.318Z,82.40
2022-12-24T18:54:40.043Z,82.40
2022-12-24T18:57:07.653Z,83.20
2022-12-24T18:59:39.139Z,84.40
2022-12-24T19:02:06.636Z,83.70
2022-12-24T19:04:35.032Z,83.70
2022-12-24T19:07:02.214Z,84.00
2022-12-24T19:09:29.635Z,83.70
2022-12-24T19:11:57.269Z,83.60
2022-12-24T19:14:24.599Z,83.40
2022-12-24T19:16:53.287Z,83.20
2022-12-24T19:19:24.075Z,83.30
2022-12-24T19:21:52.089Z,83.70
2022-12-24T19:24:20.441Z,85.40
2022-12-24T19:26:48.894Z,85.00
2022-12-24T19:29:16.190Z,84.50
2022-12-24T19:31:47.352Z,84.30
2022-12-24T19:34:14.907Z,84.10
2022-12-24T19:36:42.194Z,84.10
2022-12-24T19:39:09.446Z,84.40
2022-12-24T19:41:38.170Z,84.40
2022-12-24T19:44:05.665Z,84.40
2022-12-24T19:46:34.853Z,84.40
2022-12-24T19:49:06.275Z,85.10
2022-12-24T19:51:34.983Z,84.90
2022-12-24T19:54:02.359Z,84.90
2022-12-24T19:56:31.986Z,84.90
2022-12-24T19:59:01.433Z,84.90
2022-12-24T20:01:30.957Z,85.70
2022-12-24T20:03:59.278Z,85.10
2022-12-24T20:06:32.971Z,86.40
2022-12-24T20:09:07.561Z,86.40
2022-12-24T20:11:35.946Z,86.80
2022-12-24T20:14:07.097Z,86.80
2022-12-24T20:16:35.816Z,86.80
2022-12-24T20:19:06.490Z,87.00
2022-12-24T20:21:35.372Z,87.20
2022-12-24T20:24:02.767Z,87.10
2022-12-24T20:26:30.304Z,88.60
2022-12-24T20:28:57.588Z,90.40
2022-12-24T20:31:29.990Z,89.80
2022-12-24T20:33:58.626Z,90.40
2022-12-24T20:36:27.372Z,90.50
2022-12-24T20:38:55.039Z,90.50
2022-12-24T20:41:28.765Z,90.80
2022-12-24T20:43:59.130Z,91.30
2022-12-24T20:46:27.916Z,91.70
2022-12-24T20:48:56.181Z,91.00
2022-12-24T20:51:26.041Z,90.60
2022-12-24T20:53:56.310Z,90.50
2022-12-24T20:56:24.653Z,90.40
2022-12-24T20:58:52.353Z,90.80
2022-12-24T21:01:25.609Z,90.60
2022-12-24T21:03:55.263Z,90.50
2022-12-24T21:06:25.225Z,90.70
2022-12-24T21:08:53.735Z,90.70
2022-12-24T21:11:41.168Z,90.90
2022-12-24T21:14:08.567Z,91.60
2022-12-24T21:16:38.267Z,92.10
2022-12-24T21:19:07.864Z,92.30
2022-12-24T21:21:36.433Z,92.60
2022-12-24T21:24:04.732Z,92.80
2022-12-24T21:26:33.055Z,92.50
2022-12-24T21:29:00.660Z,92.50
2022-12-24T21:31:28.190Z,92.80
2022-12-24T21:33:56.084Z,92.80
2022-12-24T21:36:24.226Z,92.60
2022-12-24T21:38:52.658Z,92.50
2022-12-24T21:41:22.920Z,92.70
2022-12-24T21:43:50.413Z,92.50
2022-12-24T21:46:22.278Z,92.20
2022-12-24T21:49:15.889Z,91.90
2022-12-24T21:51:44.916Z,91.90
2022-12-24T21:54:24.152Z,92.80
2022-12-24T21:57:11.859Z,93.10
2022-12-24T21:59:39.455Z,93.00
2022-12-24T22:02:10.966Z,93.90
2022-12-24T22:04:38.625Z,93.90
2022-12-24T22:07:25.025Z,93.50
2022-12-24T22:10:15.551Z,93.20
2022-12-24T22:12:48.674Z,93.20
2022-12-24T22:15:17.209Z,92.80
2022-12-24T22:17:44.399Z,93.20
2022-12-24T22:20:12.104Z,92.90
2022-12-24T22:22:39.378Z,94.10
2022-12-24T22:25:07.310Z,94.60
2022-12-24T22:27:34.530Z,94.90
2022-12-24T22:30:01.894Z,94.80
2022-12-24T22:32:30.566Z,94.90
2022-12-24T22:34:57.718Z,95.00
2022-12-24T22:37:26.451Z,94.70
2022-12-24T22:39:58.073Z,94.50
2022-12-24T22:42:25.416Z,94.10
2022-12-24T22:44:54.938Z,93.90
2022-12-24T22:47:22.164Z,94.40
2022-12-24T22:49:49.463Z,94.60
2022-12-24T22:52:17.109Z,94.70
2022-12-24T22:54:44.958Z,94.70
2022-12-24T22:57:12.214Z,94.30
2022-12-24T22:59:40.120Z,94.00
2022-12-24T23:02:08.447Z,93.90
2022-12-24T23:04:40.791Z,93.70
2022-12-24T23:07:20.429Z,93.60
2022-12-24T23:09:48.572Z,93.80
2022-12-24T23:12:37.460Z,94.00
2022-12-24T23:15:05.639Z,94.30
2022-12-24T23:17:33.876Z,94.50
2022-12-24T23:20:03.025Z,94.30
2022-12-24T23:22:30.625Z,94.00
2022-12-24T23:25:00.153Z,93.80
2022-12-24T23:27:27.844Z,93.80
2022-12-24T23:29:55.664Z,93.70
2022-12-24T23:32:23.528Z,93.70
2022-12-24T23:34:50.890Z,93.60
2022-12-24T23:37:18.175Z,93.60
2022-12-24T23:39:45.456Z,93.50
2022-12-24T23:42:13.229Z,93.50
2022-12-24T23:44:40.593Z,93.50
2022-12-24T23:47:07.936Z,93.50
2022-12-24T23:49:35.997Z,93.50
2022-12-24T23:52:03.459Z,93.50
2022-12-24T23:54:30.883Z,93.40
2022-12-24T23:56:59.385Z,93.40
2022-12-24T23:59:26.803Z,93.30
